sensor_id;sensor_type;location;lat;lon;timestamp;pressure;altitude;pressure_sealevel;temperature;humidity
498;BME280;39559;48.630;9.162;2024-02-14T00:00:54;97969.50;;;-1.82;100.00
498;BME280;39559;48.630;9.162;2024-02-14T00:05:29;97972.34;;;-1.61;100.00
498;BME280;39559;48.630;9.162;2024-02-14T00:07:54;97971.56;;;-1.58;100.00
498;BME280;39559;48.630;9.162;2024-02-14T00:10:20;97978.41;;;-1.54;100.00
498;BME280;39559;48.630;9.162;2024-02-14T00:12:46;97972.34;;;-1.61;100.00
498;BME280;39559;48.630;9.162;2024-02-14T00:15:12;97979.09;;;-1.64;100.00
498;BME280;39559;48.630;9.162;2024-02-14T00:17:38;97981.75;;;-1.57;100.00
498;BME280;39559;48.630;9.162;2024-02-14T00:20:04;97984.47;;;-1.44;100.00
498;BME280;39559;48.630;9.162;2024-02-14T00:22:30;97979.47;;;-1.38;100.00
498;BME280;39559;48.630;9.162;2024-02-14T00:24:56;97970.03;;;-1.42;100.00
498;BME280;39559;48.630;9.162;2024-02-14T00:29:30;97971.63;;;-1.52;100.00
498;BME280;39559;48.630;9.162;2024-02-14T00:31:56;97968.41;;;-1.39;100.00
498;BME280;39559;48.630;9.162;2024-02-14T00:34:21;97980.47;;;-1.24;100.00
498;BME280;39559;48.630;9.162;2024-02-14T00:36:47;97972.91;;;-1.18;100.00
498;BME280;39559;48.630;9.162;2024-02-14T00:39:13;97971.16;;;-1.23;100.00
498;BME280;39559;48.630;9.162;2024-02-14T00:41:38;97972.09;;;-1.13;100.00
498;BME280;39559;48.630;9.162;2024-02-14T00:44:04;97967.09;;;-1.04;100.00
498;BME280;39559;48.630;9.162;2024-02-14T00:46:29;97968.06;;;-0.93;100.00
498;BME280;39559;48.630;9.162;2024-02-14T00:48:56;97965.50;;;-0.98;100.00
498;BME280;39559;48.630;9.162;2024-02-14T00:53:31;97962.97;;;-0.96;100.00
498;BME280;39559;48.630;9.162;2024-02-14T00:55:57;97972.28;;;-0.97;100.00
498;BME280;39559;48.630;9.162;2024-02-14T00:58:22;97970.53;;;-1.02;100.00
498;BME280;39559;48.630;9.162;2024-02-14T01:00:48;97973.13;;;-0.99;100.00
498;BME280;39559;48.630;9.162;2024-02-14T01:03:14;97978.22;;;-0.98;100.00
498;BME280;39559;48.630;9.162;2024-02-14T01:05:41;97975.59;;;-1.05;100.00
498;BME280;39559;48.630;9.162;2024-02-14T01:08:07;97973.19;;;-0.94;100.00
498;BME280;39559;48.630;9.162;2024-02-14T01:10:33;97969.88;;;-0.84;100.00
498;BME280;39559;48.630;9.162;2024-02-14T01:12:58;97975.06;;;-0.78;100.00
498;BME280;39559;48.630;9.162;2024-02-14T01:17:32;97972.63;;;-0.67;100.00
498;BME280;39559;48.630;9.162;2024-02-14T01:20:02;97975.97;;;-0.70;100.00
498;BME280;39559;48.630;9.162;2024-02-14T01:22:28;97974.28;;;-0.68;100.00
498;BME280;39559;48.630;9.162;2024-02-14T01:24:54;97976.81;;;-0.69;100.00
498;BME280;39559;48.630;9.162;2024-02-14T01:27:20;97984.47;;;-0.72;100.00
498;BME280;39559;48.630;9.162;2024-02-14T01:29:48;97980.91;;;-0.84;100.00
498;BME280;39559;48.630;9.162;2024-02-14T01:32:14;97987.69;;;-0.89;100.00
498;BME280;39559;48.630;9.162;2024-02-14T01:34:39;97983.69;;;-0.62;100.00
498;BME280;39559;48.630;9.162;2024-02-14T01:37:05;97986.34;;;-0.51;100.00
498;BME280;39559;48.630;9.162;2024-02-14T01:41:33;97975.31;;;-0.50;100.00
498;BME280;39559;48.630;9.162;2024-02-14T01:43:59;97970.13;;;-0.56;100.00
498;BME280;39559;48.630;9.162;2024-02-14T01:46:25;97976.13;;;-0.56;100.00
498;BME280;39559;48.630;9.162;2024-02-14T01:48:50;97982.03;;;-0.57;100.00
498;BME280;39559;48.630;9.162;2024-02-14T01:51:19;97980.25;;;-0.66;100.00
498;BME280;39559;48.630;9.162;2024-02-14T01:53:47;97981.13;;;-0.65;100.00
498;BME280;39559;48.630;9.162;2024-02-14T01:56:13;97987.19;;;-0.52;100.00
498;BME280;39559;48.630;9.162;2024-02-14T01:58:38;97984.56;;;-0.62;100.00
498;BME280;39559;48.630;9.162;2024-02-14T02:01:05;97982.13;;;-0.51;100.00
498;BME280;39559;48.630;9.162;2024-02-14T02:05:33;97982.16;;;-0.46;100.00
498;BME280;39559;48.630;9.162;2024-02-14T02:07:59;97974.50;;;-0.45;100.00
498;BME280;39559;48.630;9.162;2024-02-14T02:10:25;97981.34;;;-0.41;100.00
498;BME280;39559;48.630;9.162;2024-02-14T02:13:00;97985.63;;;-0.35;100.00
498;BME280;39559;48.630;9.162;2024-02-14T02:15:26;97992.50;;;-0.31;100.00
498;BME280;39559;48.630;9.162;2024-02-14T02:17:54;97970.34;;;-0.35;100.00
498;BME280;39559;48.630;9.162;2024-02-14T02:20:19;97972.06;;;-0.29;100.00
498;BME280;39559;48.630;9.162;2024-02-14T02:22:47;97972.06;;;-0.34;100.00
498;BME280;39559;48.630;9.162;2024-02-14T02:25:15;97971.16;;;-0.37;100.00
498;BME280;39559;48.630;9.162;2024-02-14T02:29:35;97965.94;;;-0.54;100.00
498;BME280;39559;48.630;9.162;2024-02-14T02:32:03;97961.69;;;-0.49;100.00
498;BME280;39559;48.630;9.162;2024-02-14T02:34:31;97968.66;;;-0.31;100.00
498;BME280;39559;48.630;9.162;2024-02-14T02:36:56;97971.22;;;-0.31;100.00
498;BME280;39559;48.630;9.162;2024-02-14T02:39:22;97964.50;;;-0.23;100.00
498;BME280;39559;48.630;9.162;2024-02-14T02:41:48;97961.00;;;-0.31;100.00
498;BME280;39559;48.630;9.162;2024-02-14T02:44:15;97964.50;;;-0.23;100.00
498;BME280;39559;48.630;9.162;2024-02-14T02:46:40;97962.75;;;-0.26;100.00
498;BME280;39559;48.630;9.162;2024-02-14T02:49:06;97953.09;;;-0.64;100.00
498;BME280;39559;48.630;9.162;2024-02-14T02:53:36;97959.25;;;-0.39;100.00
498;BME280;39559;48.630;9.162;2024-02-14T02:56:02;97965.25;;;-0.32;100.00
498;BME280;39559;48.630;9.162;2024-02-14T02:58:27;97961.00;;;-0.31;100.00
498;BME280;39559;48.630;9.162;2024-02-14T03:00:53;97951.66;;;-0.32;100.00
498;BME280;39559;48.630;9.162;2024-02-14T03:03:21;97945.69;;;-0.34;100.00
498;BME280;39559;48.630;9.162;2024-02-14T03:05:47;97943.94;;;-0.37;100.00
498;BME280;39559;48.630;9.162;2024-02-14T03:08:12;97933.69;;;-0.45;100.00
498;BME280;39559;48.630;9.162;2024-02-14T03:10:41;97943.13;;;-0.33;100.00
498;BME280;39559;48.630;9.162;2024-02-14T03:13:07;97946.66;;;-0.22;100.00
498;BME280;39559;48.630;9.162;2024-02-14T03:17:35;97932.19;;;-0.21;100.00
498;BME280;39559;48.630;9.162;2024-02-14T03:20:01;97932.19;;;-0.20;100.00
498;BME280;39559;48.630;9.162;2024-02-14T03:22:27;97931.34;;;-0.15;100.00
498;BME280;39559;48.630;9.162;2024-02-14T03:24:53;97941.59;;;-0.12;100.00
498;BME280;39559;48.630;9.162;2024-02-14T03:27:18;97945.81;;;-0.13;100.00
498;BME280;39559;48.630;9.162;2024-02-14T03:29:44;97949.19;;;-0.20;100.00
498;BME280;39559;48.630;9.162;2024-02-14T03:32:10;97967.94;;;-0.15;100.00
498;BME280;39559;48.630;9.162;2024-02-14T03:34:35;97967.03;;;-0.25;100.00
498;BME280;39559;48.630;9.162;2024-02-14T03:37:02;97983.94;;;-0.36;100.00
498;BME280;39559;48.630;9.162;2024-02-14T03:41:38;98001.53;;;-0.65;100.00
498;BME280;39559;48.630;9.162;2024-02-14T03:44:04;98010.88;;;-0.67;100.00
498;BME280;39559;48.630;9.162;2024-02-14T03:46:32;98020.22;;;-0.66;100.00
498;BME280;39559;48.630;9.162;2024-02-14T03:49:00;98020.16;;;-0.69;100.00
498;BME280;39559;48.630;9.162;2024-02-14T03:51:26;98020.41;;;-0.46;100.00
498;BME280;39559;48.630;9.162;2024-02-14T03:53:51;98015.47;;;-0.32;100.00
498;BME280;39559;48.630;9.162;2024-02-14T03:56:17;98018.81;;;-0.38;100.00
498;BME280;39559;48.630;9.162;2024-02-14T03:58:43;98014.59;;;-0.31;100.00
498;BME280;39559;48.630;9.162;2024-02-14T04:01:08;98014.53;;;-0.39;100.00
498;BME280;39559;48.630;9.162;2024-02-14T04:05:39;98005.16;;;-0.40;100.00
498;BME280;39559;48.630;9.162;2024-02-14T04:08:05;98015.34;;;-0.45;100.00
498;BME280;39559;48.630;9.162;2024-02-14T04:10:33;98015.50;;;-0.26;100.00
498;BME280;39559;48.630;9.162;2024-02-14T04:12:59;98020.59;;;-0.26;100.00
498;BME280;39559;48.630;9.162;2024-02-14T04:15:24;98007.09;;;-0.16;100.00
498;BME280;39559;48.630;9.162;2024-02-14T04:17:50;98003.69;;;-0.15;100.00
498;BME280;39559;48.630;9.162;2024-02-14T04:20:16;98001.16;;;-0.13;100.00
498;BME280;39559;48.630;9.162;2024-02-14T04:22:41;98005.31;;;-0.20;100.00
498;BME280;39559;48.630;9.162;2024-02-14T04:25:08;97991.69;;;-0.25;100.00
498;BME280;39559;48.630;9.162;2024-02-14T04:29:45;97989.97;;;-0.26;100.00
498;BME280;39559;48.630;9.162;2024-02-14T04:32:11;97985.69;;;-0.32;100.00
498;BME280;39559;48.630;9.162;2024-02-14T04:34:36;97986.31;;;-0.56;100.00
498;BME280;39559;48.630;9.162;2024-02-14T04:37:04;97993.19;;;-0.46;100.00
498;BME280;39559;48.630;9.162;2024-02-14T04:39:38;97993.19;;;-0.46;100.00
498;BME280;39559;48.630;9.162;2024-02-14T04:42:04;98000.03;;;-0.43;100.00
498;BME280;39559;48.630;9.162;2024-02-14T04:44:31;98004.28;;;-0.42;100.00
498;BME280;39559;48.630;9.162;2024-02-14T04:46:57;98004.16;;;-0.57;100.00
498;BME280;39559;48.630;9.162;2024-02-14T04:49:26;98004.84;;;-0.74;100.00
498;BME280;39559;48.630;9.162;2024-02-14T04:53:42;98007.41;;;-0.69;100.00
498;BME280;39559;48.630;9.162;2024-02-14T04:56:07;98014.25;;;-0.67;100.00
498;BME280;39559;48.630;9.162;2024-02-14T04:58:33;98015.75;;;-0.87;100.00
498;BME280;39559;48.630;9.162;2024-02-14T05:00:59;98014.97;;;-0.82;100.00
498;BME280;39559;48.630;9.162;2024-02-14T05:03:24;98019.28;;;-0.73;100.00
498;BME280;39559;48.630;9.162;2024-02-14T05:05:51;98021.69;;;-0.88;100.00
498;BME280;39559;48.630;9.162;2024-02-14T05:08:16;98029.47;;;-0.76;100.00
498;BME280;39559;48.630;9.162;2024-02-14T05:10:42;98034.38;;;-0.94;100.00
498;BME280;39559;48.630;9.162;2024-02-14T05:13:08;98037.84;;;-0.86;100.00
498;BME280;39559;48.630;9.162;2024-02-14T05:17:43;98027.50;;;-0.97;100.00
498;BME280;39559;48.630;9.162;2024-02-14T05:20:10;98033.72;;;-0.73;100.00
498;BME280;39559;48.630;9.162;2024-02-14T05:22:36;98043.88;;;-0.80;100.00
498;BME280;39559;48.630;9.162;2024-02-14T05:25:04;98044.69;;;-0.81;100.00
498;BME280;39559;48.630;9.162;2024-02-14T05:27:30;98039.53;;;-0.87;100.00
498;BME280;39559;48.630;9.162;2024-02-14T05:29:56;98039.75;;;-0.68;100.00
498;BME280;39559;48.630;9.162;2024-02-14T05:32:23;98051.81;;;-0.53;100.00
498;BME280;39559;48.630;9.162;2024-02-14T05:34:50;98048.44;;;-0.52;100.00
498;BME280;39559;48.630;9.162;2024-02-14T05:37:16;98056.19;;;-0.42;100.00
498;BME280;39559;48.630;9.162;2024-02-14T05:41:44;98040.84;;;-0.45;100.00
498;BME280;39559;48.630;9.162;2024-02-14T05:44:10;98031.56;;;-0.35;100.00
498;BME280;39559;48.630;9.162;2024-02-14T05:46:36;98036.56;;;-0.46;100.00
498;BME280;39559;48.630;9.162;2024-02-14T05:49:01;98034.91;;;-0.45;100.00
498;BME280;39559;48.630;9.162;2024-02-14T05:51:27;98036.59;;;-0.44;100.00
498;BME280;39559;48.630;9.162;2024-02-14T05:53:52;98023.06;;;-0.37;100.00
498;BME280;39559;48.630;9.162;2024-02-14T05:56:18;98027.34;;;-0.31;100.00
498;BME280;39559;48.630;9.162;2024-02-14T05:58:43;98039.31;;;-0.29;100.00
498;BME280;39559;48.630;9.162;2024-02-14T06:01:09;98026.38;;;-0.46;100.00
498;BME280;39559;48.630;9.162;2024-02-14T06:05:46;98030.47;;;-0.63;100.00
498;BME280;39559;48.630;9.162;2024-02-14T06:08:12;98036.56;;;-0.49;100.00
498;BME280;39559;48.630;9.162;2024-02-14T06:10:38;98036.50;;;-0.53;100.00
498;BME280;39559;48.630;9.162;2024-02-14T06:13:05;98033.69;;;-0.80;100.00
498;BME280;39559;48.630;9.162;2024-02-14T06:15:31;98036.28;;;-0.73;100.00
498;BME280;39559;48.630;9.162;2024-02-14T06:17:56;98037.19;;;-0.68;100.00
498;BME280;39559;48.630;9.162;2024-02-14T06:20:23;98053.56;;;-0.51;100.00
498;BME280;39559;48.630;9.162;2024-02-14T06:22:48;98051.84;;;-0.50;100.00
498;BME280;39559;48.630;9.162;2024-02-14T06:25:14;98066.31;;;-0.51;100.00
498;BME280;39559;48.630;9.162;2024-02-14T06:29:47;98072.28;;;-0.46;100.00
498;BME280;39559;48.630;9.162;2024-02-14T06:32:13;98068.94;;;-0.43;100.00
498;BME280;39559;48.630;9.162;2024-02-14T06:34:39;98074.25;;;-0.22;100.00
498;BME280;39559;48.630;9.162;2024-02-14T06:37:04;98079.41;;;-0.15;100.00
498;BME280;39559;48.630;9.162;2024-02-14T06:39:30;98088.84;;;-0.07;100.00
498;BME280;39559;48.630;9.162;2024-02-14T06:41:56;98094.00;;;-0.04;100.00
498;BME280;39559;48.630;9.162;2024-02-14T06:44:25;98097.53;;;0.09;100.00
498;BME280;39559;48.630;9.162;2024-02-14T06:46:51;98087.25;;;0.05;100.00
498;BME280;39559;48.630;9.162;2024-02-14T06:49:17;98082.88;;;-0.10;100.00
498;BME280;39559;48.630;9.162;2024-02-14T06:53:49;98083.91;;;0.10;100.00
498;BME280;39559;48.630;9.162;2024-02-14T06:56:15;98077.88;;;0.05;100.00
498;BME280;39559;48.630;9.162;2024-02-14T06:58:41;98087.22;;;-0.02;100.00
498;BME280;39559;48.630;9.162;2024-02-14T07:01:07;98073.63;;;0.03;100.00
498;BME280;39559;48.630;9.162;2024-02-14T07:03:33;98060.75;;;-0.08;100.00
498;BME280;39559;48.630;9.162;2024-02-14T07:05:59;98064.19;;;-0.05;100.00
498;BME280;39559;48.630;9.162;2024-02-14T07:08:25;98059.09;;;-0.03;100.00
498;BME280;39559;48.630;9.162;2024-02-14T07:10:54;98056.56;;;-0.02;100.00
498;BME280;39559;48.630;9.162;2024-02-14T07:13:20;98066.75;;;-0.05;100.00
498;BME280;39559;48.630;9.162;2024-02-14T07:17:49;98071.69;;;-0.23;100.00
498;BME280;39559;48.630;9.162;2024-02-14T07:20:15;98070.09;;;-0.12;100.00
498;BME280;39559;48.630;9.162;2024-02-14T07:22:42;98082.88;;;-0.09;100.00
498;BME280;39559;48.630;9.162;2024-02-14T07:25:08;98089.94;;;0.22;100.00
498;BME280;39559;48.630;9.162;2024-02-14T07:27:35;98095.13;;;0.31;100.00
498;BME280;39559;48.630;9.162;2024-02-14T07:30:00;98103.81;;;0.51;100.00
498;BME280;39559;48.630;9.162;2024-02-14T07:32:26;98107.25;;;0.60;100.00
498;BME280;39559;48.630;9.162;2024-02-14T07:34:52;98104.78;;;0.70;100.00
498;BME280;39559;48.630;9.162;2024-02-14T07:37:18;98092.84;;;0.66;100.00
498;BME280;39559;48.630;9.162;2024-02-14T07:41:51;98092.09;;;0.84;100.00
498;BME280;39559;48.630;9.162;2024-02-14T07:44:17;98099.88;;;1.04;100.00
498;BME280;39559;48.630;9.162;2024-02-14T07:46:42;98091.38;;;1.10;100.00
498;BME280;39559;48.630;9.162;2024-02-14T07:49:08;98092.28;;;1.17;100.00
498;BME280;39559;48.630;9.162;2024-02-14T07:51:35;98090.63;;;1.28;100.00
498;BME280;39559;48.630;9.162;2024-02-14T07:54:06;98089.78;;;1.35;100.00
498;BME280;39559;48.630;9.162;2024-02-14T07:56:32;98089.81;;;1.43;100.00
498;BME280;39559;48.630;9.162;2024-02-14T07:58:58;98085.56;;;1.51;100.00
498;BME280;39559;48.630;9.162;2024-02-14T08:01:24;98094.13;;;1.59;100.00
498;BME280;39559;48.630;9.162;2024-02-14T08:05:52;98099.31;;;1.88;100.00
498;BME280;39559;48.630;9.162;2024-02-14T08:08:18;98107.88;;;1.87;100.00
498;BME280;39559;48.630;9.162;2024-02-14T08:10:43;98110.44;;;2.03;100.00
498;BME280;39559;48.630;9.162;2024-02-14T08:13:09;98113.00;;;2.18;100.00
498;BME280;39559;48.630;9.162;2024-02-14T08:15:34;98113.88;;;2.26;100.00
498;BME280;39559;48.630;9.162;2024-02-14T08:18:00;98119.84;;;2.36;100.00
498;BME280;39559;48.630;9.162;2024-02-14T08:20:25;98118.16;;;2.41;100.00
498;BME280;39559;48.630;9.162;2024-02-14T08:22:51;98124.13;;;2.45;100.00
498;BME280;39559;48.630;9.162;2024-02-14T08:25:17;98126.72;;;2.49;100.00
498;BME280;39559;48.630;9.162;2024-02-14T08:29:53;98132.66;;;2.85;100.00
498;BME280;39559;48.630;9.162;2024-02-14T08:32:19;98123.22;;;2.98;100.00
498;BME280;39559;48.630;9.162;2024-02-14T08:34:44;98136.09;;;2.86;100.00
498;BME280;39559;48.630;9.162;2024-02-14T08:37:10;98138.66;;;2.84;100.00
498;BME280;39559;48.630;9.162;2024-02-14T08:39:35;98142.00;;;3.13;100.00
498;BME280;39559;48.630;9.162;2024-02-14T08:42:01;98139.44;;;3.16;100.00
498;BME280;39559;48.630;9.162;2024-02-14T08:44:35;98136.88;;;3.19;100.00
498;BME280;39559;48.630;9.162;2024-02-14T08:47:03;98141.09;;;3.38;100.00
498;BME280;39559;48.630;9.162;2024-02-14T08:49:29;98135.97;;;3.37;100.00
498;BME280;39559;48.630;9.162;2024-02-14T08:53:54;98141.84;;;3.62;100.00
498;BME280;39559;48.630;9.162;2024-02-14T08:56:22;98138.38;;;3.72;100.00
498;BME280;39559;48.630;9.162;2024-02-14T08:58:49;98135.06;;;3.52;100.00
498;BME280;39559;48.630;9.162;2024-02-14T09:01:14;98130.72;;;3.66;100.00
498;BME280;39559;48.630;9.162;2024-02-14T09:03:44;98132.38;;;3.78;100.00
498;BME280;39559;48.630;9.162;2024-02-14T09:06:16;98126.44;;;3.68;100.00
498;BME280;39559;48.630;9.162;2024-02-14T09:08:43;98131.50;;;3.80;100.00
498;BME280;39559;48.630;9.162;2024-02-14T09:11:09;98145.09;;;3.96;100.00
498;BME280;39559;48.630;9.162;2024-02-14T09:13:35;98136.53;;;3.99;100.00
498;BME280;39559;48.630;9.162;2024-02-14T09:17:55;98146.69;;;4.20;100.00
498;BME280;39559;48.630;9.162;2024-02-14T09:20:22;98144.88;;;4.35;100.00
498;BME280;39559;48.630;9.162;2024-02-14T09:22:47;98139.47;;;4.67;100.00
498;BME280;39559;48.630;9.162;2024-02-14T09:25:13;98149.41;;;5.06;100.00
498;BME280;39559;48.630;9.162;2024-02-14T09:27:39;98117.06;;;5.59;100.00
498;BME280;39559;48.630;9.162;2024-02-14T09:30:07;98060.34;;;6.24;100.00
498;BME280;39559;48.630;9.162;2024-02-14T09:32:33;98021.06;;;6.57;100.00
498;BME280;39559;48.630;9.162;2024-02-14T09:34:59;98006.78;;;6.85;100.00
498;BME280;39559;48.630;9.162;2024-02-14T09:37:26;98001.91;;;7.15;100.00
498;BME280;39559;48.630;9.162;2024-02-14T09:41:58;97999.13;;;7.65;100.00
498;BME280;39559;48.630;9.162;2024-02-14T09:44:27;97994.31;;;7.85;100.00
498;BME280;39559;48.630;9.162;2024-02-14T09:46:56;97997.34;;;8.04;100.00
498;BME280;39559;48.630;9.162;2024-02-14T09:49:24;97985.72;;;8.21;100.00
498;BME280;39559;48.630;9.162;2024-02-14T09:51:52;97982.22;;;8.22;100.00
498;BME280;39559;48.630;9.162;2024-02-14T09:54:19;97977.03;;;8.23;100.00
498;BME280;39559;48.630;9.162;2024-02-14T09:56:50;97976.13;;;8.26;100.00
498;BME280;39559;48.630;9.162;2024-02-14T09:59:19;97981.91;;;8.36;100.00
498;BME280;39559;48.630;9.162;2024-02-14T10:01:46;97979.13;;;8.43;100.00
498;BME280;39559;48.630;9.162;2024-02-14T10:05:57;97985.25;;;8.74;100.00
498;BME280;39559;48.630;9.162;2024-02-14T10:08:22;97981.72;;;8.76;100.00
498;BME280;39559;48.630;9.162;2024-02-14T10:10:49;97971.69;;;8.95;100.00
498;BME280;39559;48.630;9.162;2024-02-14T10:13:15;97976.00;;;8.95;100.00
498;BME280;39559;48.630;9.162;2024-02-14T10:15:41;97973.91;;;9.08;100.00
498;BME280;39559;48.630;9.162;2024-02-14T10:18:07;97970.97;;;8.90;100.00
498;BME280;39559;48.630;9.162;2024-02-14T10:20:35;97971.97;;;8.86;100.00
498;BME280;39559;48.630;9.162;2024-02-14T10:23:07;97968.38;;;8.90;100.00
498;BME280;39559;48.630;9.162;2024-02-14T10:25:37;97962.25;;;9.24;100.00
498;BME280;39559;48.630;9.162;2024-02-14T10:29:59;97960.44;;;9.54;100.00
498;BME280;39559;48.630;9.162;2024-02-14T10:32:25;97955.63;;;9.42;100.00
498;BME280;39559;48.630;9.162;2024-02-14T10:34:51;97959.00;;;9.74;100.00
498;BME280;39559;48.630;9.162;2024-02-14T10:37:17;97957.00;;;10.09;100.00
498;BME280;39559;48.630;9.162;2024-02-14T10:39:46;97945.13;;;10.02;100.00
498;BME280;39559;48.630;9.162;2024-02-14T10:42:13;97947.72;;;10.02;100.00
498;BME280;39559;48.630;9.162;2024-02-14T10:44:39;97948.63;;;10.26;100.00
498;BME280;39559;48.630;9.162;2024-02-14T10:47:06;97942.75;;;10.47;100.00
498;BME280;39559;48.630;9.162;2024-02-14T10:49:35;97941.38;;;10.37;100.00
498;BME280;39559;48.630;9.162;2024-02-14T10:53:58;97939.53;;;10.41;100.00
498;BME280;39559;48.630;9.162;2024-02-14T10:56:28;97947.91;;;10.49;100.00
498;BME280;39559;48.630;9.162;2024-02-14T10:58:56;97948.00;;;10.94;100.00
498;BME280;39559;48.630;9.162;2024-02-14T11:01:26;97943.47;;;11.00;100.00
498;BME280;39559;48.630;9.162;2024-02-14T11:03:53;97953.03;;;10.99;100.00
498;BME280;39559;48.630;9.162;2024-02-14T11:06:21;97945.78;;;10.84;100.00
498;BME280;39559;48.630;9.162;2024-02-14T11:08:57;97944.50;;;10.95;100.00
498;BME280;39559;48.630;9.162;2024-02-14T11:11:23;97956.47;;;11.23;100.00
498;BME280;39559;48.630;9.162;2024-02-14T11:13:53;97961.53;;;11.50;100.00
498;BME280;39559;48.630;9.162;2024-02-14T11:18:05;97958.72;;;11.55;100.00
498;BME280;39559;48.630;9.162;2024-02-14T11:20:35;97960.75;;;11.48;100.00
498;BME280;39559;48.630;9.162;2024-02-14T11:23:02;97974.03;;;11.17;100.00
498;BME280;39559;48.630;9.162;2024-02-14T11:25:29;97963.03;;;11.56;100.00
498;BME280;39559;48.630;9.162;2024-02-14T11:27:58;97964.31;;;11.67;100.00
498;BME280;39559;48.630;9.162;2024-02-14T11:30:34;97969.66;;;11.64;100.00
498;BME280;39559;48.630;9.162;2024-02-14T11:33:14;97982.50;;;11.91;100.00
498;BME280;39559;48.630;9.162;2024-02-14T11:35:45;97972.09;;;11.89;100.00
498;BME280;39559;48.630;9.162;2024-02-14T11:38:11;97966.25;;;12.06;100.00
498;BME280;39559;48.630;9.162;2024-02-14T11:41:58;97974.34;;;12.62;100.00
498;BME280;39559;48.630;9.162;2024-02-14T11:44:25;97972.09;;;12.54;100.00
498;BME280;39559;48.630;9.162;2024-02-14T11:46:51;97964.78;;;12.21;100.00
498;BME280;39559;48.630;9.162;2024-02-14T11:49:17;97969.22;;;12.60;100.00
498;BME280;39559;48.630;9.162;2024-02-14T11:51:42;97974.66;;;12.13;100.00
498;BME280;39559;48.630;9.162;2024-02-14T11:54:08;97962.25;;;11.76;100.00
498;BME280;39559;48.630;9.162;2024-02-14T11:56:36;97963.88;;;11.78;100.00
498;BME280;39559;48.630;9.162;2024-02-14T11:59:03;97962.47;;;11.47;100.00
498;BME280;39559;48.630;9.162;2024-02-14T12:01:34;97960.34;;;12.03;100.00
498;BME280;39559;48.630;9.162;2024-02-14T12:05:58;97940.16;;;13.83;100.00
498;BME280;39559;48.630;9.162;2024-02-14T12:08:24;97944.09;;;14.80;100.00
498;BME280;39559;48.630;9.162;2024-02-14T12:10:49;97947.84;;;16.33;100.00
498;BME280;39559;48.630;9.162;2024-02-14T12:13:17;97949.31;;;15.92;100.00
498;BME280;39559;48.630;9.162;2024-02-14T12:15:48;97957.00;;;15.32;100.00
498;BME280;39559;48.630;9.162;2024-02-14T12:18:15;97950.72;;;14.17;100.00
498;BME280;39559;48.630;9.162;2024-02-14T12:20:42;97958.06;;;13.55;100.00
498;BME280;39559;48.630;9.162;2024-02-14T12:23:14;97949.72;;;13.09;100.00
498;BME280;39559;48.630;9.162;2024-02-14T12:25:40;97957.72;;;12.85;100.00
498;BME280;39559;48.630;9.162;2024-02-14T12:29:57;97958.47;;;12.27;100.00
498;BME280;39559;48.630;9.162;2024-02-14T12:32:23;97952.78;;;12.58;100.00
498;BME280;39559;48.630;9.162;2024-02-14T12:37:55;97949.81;;;12.47;100.00
498;BME280;39559;48.630;9.162;2024-02-14T12:40:24;97946.75;;;12.58;100.00
498;BME280;39559;48.630;9.162;2024-02-14T12:42:50;97948.13;;;12.66;100.00
498;BME280;39559;48.630;9.162;2024-02-14T12:45:15;97943.47;;;12.73;100.00
498;BME280;39559;48.630;9.162;2024-02-14T12:47:41;97939.81;;;12.77;100.00
498;BME280;39559;48.630;9.162;2024-02-14T12:50:08;97929.25;;;12.41;100.00
498;BME280;39559;48.630;9.162;2024-02-14T12:53:56;97940.31;;;12.25;100.00
498;BME280;39559;48.630;9.162;2024-02-14T12:56:22;97948.16;;;12.03;100.00
498;BME280;39559;48.630;9.162;2024-02-14T12:58:49;97949.00;;;12.04;100.00
498;BME280;39559;48.630;9.162;2024-02-14T13:01:14;97948.94;;;12.26;100.00
498;BME280;39559;48.630;9.162;2024-02-14T13:03:40;97939.84;;;12.16;100.00
498;BME280;39559;48.630;9.162;2024-02-14T13:06:06;97934.31;;;12.23;100.00
498;BME280;39559;48.630;9.162;2024-02-14T13:08:31;97935.72;;;12.51;100.00
498;BME280;39559;48.630;9.162;2024-02-14T13:10:57;97946.88;;;12.34;100.00
498;BME280;39559;48.630;9.162;2024-02-14T13:13:23;97939.28;;;12.50;100.00
498;BME280;39559;48.630;9.162;2024-02-14T13:17:55;97937.97;;;12.19;100.00
498;BME280;39559;48.630;9.162;2024-02-14T13:20:24;97933.88;;;12.34;100.00
498;BME280;39559;48.630;9.162;2024-02-14T13:22:49;97934.38;;;12.42;100.00
498;BME280;39559;48.630;9.162;2024-02-14T13:25:15;97931.06;;;12.39;100.00
498;BME280;39559;48.630;9.162;2024-02-14T13:27:40;97920.78;;;12.36;100.00
498;BME280;39559;48.630;9.162;2024-02-14T13:30:06;97917.50;;;12.72;100.00
498;BME280;39559;48.630;9.162;2024-02-14T13:32:35;97918.09;;;12.58;100.00
498;BME280;39559;48.630;9.162;2024-02-14T13:35:00;97920.34;;;12.65;100.00
498;BME280;39559;48.630;9.162;2024-02-14T13:37:26;97915.00;;;12.68;100.00
498;BME280;39559;48.630;9.162;2024-02-14T13:41:54;97917.28;;;12.76;100.00
498;BME280;39559;48.630;9.162;2024-02-14T13:44:23;97916.31;;;12.58;100.00
498;BME280;39559;48.630;9.162;2024-02-14T13:46:50;97912.97;;;12.36;100.00
498;BME280;39559;48.630;9.162;2024-02-14T13:49:16;97902.34;;;12.20;100.00
498;BME280;39559;48.630;9.162;2024-02-14T13:51:48;97913.31;;;12.28;100.00
498;BME280;39559;48.630;9.162;2024-02-14T13:54:13;97911.91;;;12.40;100.00
498;BME280;39559;48.630;9.162;2024-02-14T13:56:40;97911.38;;;12.52;100.00
498;BME280;39559;48.630;9.162;2024-02-14T13:59:05;97924.88;;;12.41;100.00
498;BME280;39559;48.630;9.162;2024-02-14T14:01:31;97927.16;;;12.28;100.00
498;BME280;39559;48.630;9.162;2024-02-14T14:05:53;97932.03;;;11.95;100.00
498;BME280;39559;48.630;9.162;2024-02-14T14:08:18;97927.78;;;12.13;100.00
498;BME280;39559;48.630;9.162;2024-02-14T14:10:44;97926.38;;;12.26;100.00
498;BME280;39559;48.630;9.162;2024-02-14T14:13:10;97927.94;;;12.10;100.00
498;BME280;39559;48.630;9.162;2024-02-14T14:15:35;97913.97;;;11.90;100.00
498;BME280;39559;48.630;9.162;2024-02-14T14:18:01;97911.00;;;12.20;100.00
498;BME280;39559;48.630;9.162;2024-02-14T14:20:27;97919.59;;;12.22;100.00
498;BME280;39559;48.630;9.162;2024-02-14T14:22:53;97919.81;;;12.18;100.00